Time;durP1;ratioP1;P1;durP2;ratioP2;P2;SDS_P1;SDS_P2;PMS_P1;PMS_P2;Temp;Humidity;BMP_temperature;BMP_pressure;BME280_temperature;BME280_humidity;BME280_pressure;Samples;Min_cycle;Max_cycle;Signal;HPM_P1;HPM_P2
2023/06/29 00:02:24;;;;;;;;;;;16.60;97.40;;;;;;5116587;28;19985;-63
2023/06/29 00:04:50;;;;;;;;;;;16.60;97.10;;;;;;5116487;28;20049;-63
2023/06/29 00:07:16;;;;;;;;;;;16.50;97.20;;;;;;5116522;28;19992;-63
2023/06/29 00:09:42;;;;;;;;;;;16.50;97.00;;;;;;5116441;28;19984;-63
2023/06/29 00:12:07;;;;;;;;;;;16.60;97.00;;;;;;5116220;28;20075;-63
2023/06/29 00:14:33;;;;;;;;;;;16.50;96.80;;;;;;5116309;28;20015;-63
2023/06/29 00:16:58;;;;;;;;;;;16.50;96.80;;;;;;5115351;28;19991;-63
2023/06/29 00:19:24;;;;;;;;;;;16.50;97.20;;;;;;5116349;28;20037;-63
2023/06/29 00:21:49;;;;;;;;;;;16.40;97.20;;;;;;5116122;28;19991;-63
2023/06/29 00:24:15;;;;;;;;;;;16.40;97.30;;;;;;5116459;28;20454;-63
2023/06/29 00:26:41;;;;;;;;;;;16.40;97.20;;;;;;5115952;28;20033;-63
2023/06/29 00:29:06;;;;;;;;;;;16.40;96.90;;;;;;5116092;28;20024;-63
2023/06/29 00:31:32;;;;;;;;;;;16.40;97.10;;;;;;5116004;28;19989;-63
2023/06/29 00:33:57;;;;;;;;;;;16.30;97.50;;;;;;5115987;28;20056;-63
2023/06/29 00:36:23;;;;;;;;;;;16.30;97.30;;;;;;5115941;28;19991;-63
2023/06/29 00:38:48;;;;;;;;;;;16.30;97.40;;;;;;5115874;28;20054;-63
2023/06/29 00:41:14;;;;;;;;;;;16.20;97.20;;;;;;5115714;28;19984;-63
2023/06/29 00:43:43;;;;;;;;;;;16.20;97.20;;;;;;5115573;28;20007;-63
2023/06/29 00:46:09;;;;;;;;;;;16.20;97.40;;;;;;5115661;28;20032;-63
2023/06/29 00:48:36;;;;;;;;;;;16.20;97.40;;;;;;5115826;28;20020;-63
2023/06/29 00:51:02;;;;;;;;;;;16.20;97.20;;;;;;5115690;28;20087;-63
2023/06/29 00:53:28;;;;;;;;;;;16.20;97.50;;;;;;5115481;28;20119;-63
2023/06/29 00:55:54;;;;;;;;;;;16.20;97.30;;;;;;5115350;28;20027;-63
2023/06/29 00:58:19;;;;;;;;;;;16.10;97.40;;;;;;5097268;28;20430;-63
2023/06/29 01:00:45;;;;;;;;;;;16.10;97.40;;;;;;5115363;28;20042;-63
2023/06/29 01:03:11;;;;;;;;;;;16.10;97.20;;;;;;5115394;28;20087;-63
2023/06/29 01:05:36;;;;;;;;;;;16.10;97.30;;;;;;5115251;28;20510;-63
2023/06/29 01:08:08;;;;;;;;;;;16.00;97.40;;;;;;5115206;28;20033;-63
2023/06/29 01:10:34;;;;;;;;;;;16.00;97.80;;;;;;5096827;28;19995;-64
2023/06/29 01:13:01;;;;;;;;;;;15.90;98.10;;;;;;5115194;28;20052;-63
2023/06/29 01:15:27;;;;;;;;;;;15.90;98.20;;;;;;5115148;28;20049;-63
2023/06/29 01:17:54;;;;;;;;;;;15.90;98.40;;;;;;5115115;28;19991;-63
2023/06/29 01:20:20;;;;;;;;;;;15.90;98.50;;;;;;5115084;28;19989;-63
2023/06/29 01:22:58;;;;;;;;;;;15.90;98.60;;;;;;5115235;28;20395;-64
2023/06/29 01:25:25;;;;;;;;;;;15.80;98.60;;;;;;5115019;28;20034;-64
2023/06/29 01:27:50;;;;;;;;;;;15.80;98.80;;;;;;5114770;28;20062;-63
2023/06/29 01:30:16;;;;;;;;;;;15.80;98.70;;;;;;5114808;28;20028;-63
2023/06/29 01:32:42;;;;;;;;;;;15.80;99.10;;;;;;5114717;28;20477;-63
2023/06/29 01:35:08;;;;;;;;;;;15.80;98.80;;;;;;5114808;28;19984;-64
2023/06/29 01:37:57;;;;;;;;;;;15.80;98.80;;;;;;5114548;28;20426;-63
2023/06/29 01:40:24;;;;;;;;;;;15.80;98.50;;;;;;5101258;28;20354;-64
2023/06/29 01:42:50;;;;;;;;;;;15.70;98.60;;;;;;5114510;28;20439;-63
2023/06/29 01:45:18;;;;;;;;;;;15.70;98.80;;;;;;5114408;28;20055;-64
2023/06/29 01:47:43;;;;;;;;;;;15.70;98.80;;;;;;5114763;28;19989;-64
2023/06/29 01:50:09;;;;;;;;;;;15.70;99.10;;;;;;5114471;28;19992;-64
2023/06/29 01:52:35;;;;;;;;;;;15.70;98.80;;;;;;5114335;28;20097;-63
2023/06/29 01:55:00;;;;;;;;;;;15.70;98.90;;;;;;5114655;28;19992;-63
2023/06/29 01:57:26;;;;;;;;;;;15.60;99.20;;;;;;5114658;28;20058;-63
2023/06/29 01:59:52;;;;;;;;;;;15.50;99.20;;;;;;5114234;28;20122;-63
2023/06/29 02:02:17;;;;;;;;;;;15.60;99.40;;;;;;5114473;28;19984;-63
2023/06/29 02:04:43;;;;;;;;;;;15.50;99.40;;;;;;5114369;28;19984;-63
2023/06/29 02:07:08;;;;;;;;;;;15.50;99.50;;;;;;5114054;28;19988;-64
2023/06/29 02:09:34;;;;;;;;;;;15.50;99.90;;;;;;5114352;28;19985;-64
2023/06/29 02:11:59;;;;;;;;;;;15.50;99.50;;;;;;5114316;28;19984;-63
2023/06/29 02:14:25;;;;;;;;;;;15.50;99.40;;;;;;5114096;28;20016;-63
2023/06/29 02:16:51;;;;;;;;;;;15.40;99.30;;;;;;5114215;28;19989;-63
2023/06/29 02:19:16;;;;;;;;;;;15.50;99.40;;;;;;5114203;28;19985;-63
2023/06/29 02:21:42;;;;;;;;;;;15.40;99.80;;;;;;5113931;28;19985;-63
2023/06/29 02:24:07;;;;;;;;;;;15.40;99.90;;;;;;5114283;28;20067;-64
2023/06/29 02:26:33;;;;;;;;;;;15.40;99.80;;;;;;5114065;28;19985;-63
2023/06/29 02:28:58;;;;;;;;;;;15.40;99.70;;;;;;5114154;28;19988;-64
2023/06/29 02:31:24;;;;;;;;;;;15.40;99.90;;;;;;5114053;28;20083;-63
2023/06/29 02:33:50;;;;;;;;;;;15.30;99.90;;;;;;5113865;28;20458;-63
2023/06/29 02:36:17;;;;;;;;;;;15.10;99.90;;;;;;5113835;28;19992;-63
2023/06/29 02:38:43;;;;;;;;;;;15.10;99.90;;;;;;5114423;28;20497;-63
2023/06/29 02:41:09;;;;;;;;;;;15.10;99.90;;;;;;5118122;28;20023;-63
2023/06/29 02:43:34;;;;;;;;;;;15.10;99.90;;;;;;5118166;28;20008;-63
2023/06/29 02:46:00;;;;;;;;;;;15.10;99.90;;;;;;5117844;28;20486;-63
2023/06/29 02:48:25;;;;;;;;;;;15.10;99.90;;;;;;5118056;28;20454;-63
2023/06/29 02:50:52;;;;;;;;;;;15.10;99.90;;;;;;5117914;28;19985;-63
2023/06/29 02:53:17;;;;;;;;;;;15.20;99.90;;;;;;5117827;28;20059;-64
2023/06/29 02:55:43;;;;;;;;;;;15.20;99.90;;;;;;5117981;28;19985;-63
2023/06/29 02:58:08;;;;;;;;;;;15.30;99.90;;;;;;5117775;28;19992;-63
2023/06/29 03:00:34;;;;;;;;;;;15.30;99.90;;;;;;5117860;28;19991;-64
2023/06/29 03:02:59;;;;;;;;;;;15.30;99.90;;;;;;5117671;28;20378;-63
2023/06/29 03:05:25;;;;;;;;;;;15.20;99.90;;;;;;5117537;28;20430;-64
2023/06/29 03:07:50;;;;;;;;;;;15.20;99.90;;;;;;5117673;28;20067;-63
2023/06/29 03:10:16;;;;;;;;;;;15.30;99.90;;;;;;5117547;28;20439;-63
2023/06/29 03:12:42;;;;;;;;;;;15.40;99.90;;;;;;5117446;28;20061;-63
2023/06/29 03:15:07;;;;;;;;;;;15.30;99.90;;;;;;5117572;28;19992;-63
2023/06/29 03:17:33;;;;;;;;;;;15.30;99.90;;;;;;5117434;28;20031;-63
2023/06/29 03:19:58;;;;;;;;;;;15.40;99.90;;;;;;5117229;28;20024;-63
2023/06/29 03:22:26;;;;;;;;;;;15.40;99.90;;;;;;5117395;28;19989;-64
2023/06/29 03:24:52;;;;;;;;;;;15.30;99.90;;;;;;5117292;28;20092;-63
2023/06/29 03:27:17;;;;;;;;;;;15.20;99.90;;;;;;5117444;28;20020;-63
2023/06/29 03:29:43;;;;;;;;;;;15.20;99.90;;;;;;5117226;28;20517;-63
2023/06/29 03:32:09;;;;;;;;;;;15.20;99.90;;;;;;5117209;28;19989;-64
2023/06/29 03:34:34;;;;;;;;;;;15.30;99.90;;;;;;5116968;28;20038;-64
2023/06/29 03:37:00;;;;;;;;;;;15.20;99.90;;;;;;5117141;28;20079;-64
2023/06/29 03:39:25;;;;;;;;;;;15.20;99.90;;;;;;5117140;28;20396;-63
2023/06/29 03:41:51;;;;;;;;;;;15.30;99.90;;;;;;5116885;28;19992;-64
2023/06/29 03:44:16;;;;;;;;;;;15.30;99.90;;;;;;5116930;28;20043;-63
2023/06/29 03:46:42;;;;;;;;;;;15.30;99.90;;;;;;5116757;28;20043;-63
2023/06/29 03:49:07;;;;;;;;;;;15.30;99.90;;;;;;5098437;28;20090;-63
2023/06/29 03:51:33;;;;;;;;;;;15.30;99.90;;;;;;5116732;28;19985;-63
2023/06/29 03:53:59;;;;;;;;;;;15.30;99.90;;;;;;5116728;28;20008;-63
2023/06/29 03:56:24;;;;;;;;;;;15.30;99.90;;;;;;5116608;28;19984;-63
2023/06/29 03:58:50;;;;;;;;;;;15.30;99.90;;;;;;5116941;28;19995;-63
2023/06/29 04:01:15;;;;;;;;;;;15.30;99.90;;;;;;5116783;28;19988;-63
2023/06/29 04:03:41;;;;;;;;;;;15.20;99.90;;;;;;5116482;28;20419;-63
2023/06/29 04:06:06;;;;;;;;;;;15.20;99.90;;;;;;5116521;28;19992;-63
2023/06/29 04:08:32;;;;;;;;;;;15.20;99.90;;;;;;5116609;28;20030;-63
2023/06/29 04:10:58;;;;;;;;;;;15.30;99.90;;;;;;5116494;28;20083;-63
2023/06/29 04:13:24;;;;;;;;;;;15.30;99.90;;;;;;5116293;28;20111;-63
2023/06/29 04:15:49;;;;;;;;;;;15.40;99.90;;;;;;5116507;28;19984;-63
2023/06/29 04:18:15;;;;;;;;;;;15.40;99.90;;;;;;5116248;28;20450;-63
2023/06/29 04:20:40;;;;;;;;;;;15.50;99.90;;;;;;5116248;28;20362;-64
2023/06/29 04:23:06;;;;;;;;;;;15.50;99.90;;;;;;5116302;28;19984;-63
2023/06/29 04:25:33;;;;;;;;;;;15.60;99.90;;;;;;5116303;28;19992;-63
2023/06/29 04:27:59;;;;;;;;;;;15.70;99.90;;;;;;5116100;28;20011;-63
2023/06/29 04:30:24;;;;;;;;;;;15.80;99.90;;;;;;5116128;28;19988;-63
2023/06/29 04:32:50;;;;;;;;;;;15.80;99.70;;;;;;5115775;28;20103;-64
2023/06/29 04:35:15;;;;;;;;;;;15.90;99.60;;;;;;5116049;28;19984;-64
2023/06/29 04:37:41;;;;;;;;;;;16.00;99.30;;;;;;5115813;28;19984;-63
2023/06/29 04:40:12;;;;;;;;;;;16.00;99.20;;;;;;5115887;28;20393;-63
2023/06/29 04:42:43;;;;;;;;;;;16.00;99.60;;;;;;5115829;28;20004;-64
2023/06/29 04:45:12;;;;;;;;;;;16.10;98.70;;;;;;5115940;28;20036;-63
2023/06/29 04:47:40;;;;;;;;;;;16.10;98.60;;;;;;5115621;28;19993;-63
2023/06/29 04:50:07;;;;;;;;;;;16.10;98.70;;;;;;5115718;28;20342;-63
2023/06/29 04:52:36;;;;;;;;;;;16.20;98.90;;;;;;5115549;28;20013;-63
2023/06/29 04:55:03;;;;;;;;;;;16.20;98.40;;;;;;5115731;28;19985;-63
2023/06/29 04:57:29;;;;;;;;;;;16.30;97.90;;;;;;5115690;28;19993;-63
2023/06/29 04:59:54;;;;;;;;;;;16.40;98.50;;;;;;5115438;28;19989;-63
2023/06/29 05:02:20;;;;;;;;;;;16.50;98.40;;;;;;5114726;28;19989;-63
2023/06/29 05:04:45;;;;;;;;;;;16.50;97.80;;;;;;5115233;28;19995;-63
2023/06/29 05:07:11;;;;;;;;;;;16.50;97.70;;;;;;5114994;28;19985;-64
2023/06/29 05:09:36;;;;;;;;;;;16.50;97.60;;;;;;5113914;28;20028;-63
2023/06/29 05:12:02;;;;;;;;;;;16.50;98.40;;;;;;5115216;28;20439;-63
2023/06/29 05:14:28;;;;;;;;;;;16.60;98.00;;;;;;5115051;28;20012;-63
2023/06/29 05:16:53;;;;;;;;;;;16.60;97.40;;;;;;5115007;28;20031;-63
2023/06/29 05:19:19;;;;;;;;;;;16.70;97.20;;;;;;5115155;28;20494;-63
2023/06/29 05:21:44;;;;;;;;;;;16.60;97.30;;;;;;5114933;28;20423;-63
2023/06/29 05:24:10;;;;;;;;;;;16.70;97.70;;;;;;5115015;28;20347;-63
2023/06/29 05:26:35;;;;;;;;;;;16.90;97.50;;;;;;5114935;28;20439;-63
2023/06/29 05:29:01;;;;;;;;;;;17.00;96.90;;;;;;5114776;28;20032;-63
2023/06/29 05:31:26;;;;;;;;;;;17.00;96.80;;;;;;5114729;28;19993;-63
2023/06/29 05:33:52;;;;;;;;;;;17.10;96.30;;;;;;5114735;28;20054;-63
2023/06/29 05:36:17;;;;;;;;;;;17.20;96.90;;;;;;5114857;28;20228;-63
2023/06/29 05:38:43;;;;;;;;;;;17.20;96.40;;;;;;5114614;28;19992;-63
2023/06/29 05:41:09;;;;;;;;;;;17.30;97.10;;;;;;5114576;28;20087;-63
2023/06/29 05:43:34;;;;;;;;;;;17.40;97.60;;;;;;5114514;28;20004;-63
2023/06/29 05:46:00;;;;;;;;;;;17.60;97.10;;;;;;5113993;28;20119;-63
2023/06/29 05:48:25;;;;;;;;;;;17.60;96.40;;;;;;5114736;28;20014;-63
2023/06/29 05:50:51;;;;;;;;;;;17.80;95.60;;;;;;5114240;28;20442;-63
2023/06/29 05:53:16;;;;;;;;;;;18.10;94.40;;;;;;5114471;28;20083;-63
2023/06/29 05:55:42;;;;;;;;;;;18.20;94.30;;;;;;5114587;28;20079;-64
2023/06/29 05:58:08;;;;;;;;;;;18.20;94.70;;;;;;5114424;28;20037;-63
2023/06/29 06:00:33;;;;;;;;;;;18.10;94.10;;;;;;5113993;28;19988;-63
2023/06/29 06:02:59;;;;;;;;;;;18.00;94.00;;;;;;5114509;28;19993;-63
2023/06/29 06:05:24;;;;;;;;;;;18.10;94.40;;;;;;5114183;28;20489;-63
2023/06/29 06:07:50;;;;;;;;;;;18.10;94.80;;;;;;5114250;28;19985;-63
2023/06/29 06:10:15;;;;;;;;;;;18.10;94.60;;;;;;5113802;28;19984;-63
2023/06/29 06:12:41;;;;;;;;;;;17.90;94.70;;;;;;5113966;28;20015;-63
2023/06/29 06:15:11;;;;;;;;;;;17.90;95.00;;;;;;5113292;28;20351;-63
2023/06/29 06:17:37;;;;;;;;;;;17.90;95.00;;;;;;5113945;28;19985;-63
2023/06/29 06:20:05;;;;;;;;;;;17.90;95.20;;;;;;5114340;28;20399;-63
2023/06/29 06:22:30;;;;;;;;;;;17.90;94.20;;;;;;5114112;28;20126;-63
2023/06/29 06:24:56;;;;;;;;;;;17.80;94.70;;;;;;5114000;28;20029;-63
2023/06/29 06:27:22;;;;;;;;;;;17.80;95.00;;;;;;5113586;28;20036;-63
2023/06/29 06:29:47;;;;;;;;;;;17.90;95.10;;;;;;5113900;28;19984;-63
2023/06/29 06:32:13;;;;;;;;;;;18.20;95.00;;;;;;5113147;28;20081;-63
2023/06/29 06:34:38;;;;;;;;;;;18.20;94.60;;;;;;5112044;28;20078;-63
2023/06/29 06:37:05;;;;;;;;;;;18.20;94.20;;;;;;5112186;28;19984;-64
2023/06/29 06:39:32;;;;;;;;;;;18.30;94.60;;;;;;5119017;28;19984;-64
2023/06/29 06:41:59;;;;;;;;;;;18.40;94.40;;;;;;5132285;28;19992;-64
2023/06/29 06:44:24;;;;;;;;;;;18.60;94.00;;;;;;5132484;28;20027;-64
2023/06/29 06:46:50;;;;;;;;;;;18.70;94.10;;;;;;5132648;28;20063;-64
2023/06/29 06:49:15;;;;;;;;;;;18.90;93.80;;;;;;5132027;28;19984;-64
2023/06/29 06:51:41;;;;;;;;;;;19.00;93.80;;;;;;5132498;28;19984;-64
2023/06/29 06:54:06;;;;;;;;;;;19.10;93.30;;;;;;5132620;28;20489;-65
2023/06/29 06:56:32;;;;;;;;;;;19.30;93.90;;;;;;5132199;28;19996;-63
2023/06/29 06:58:58;;;;;;;;;;;19.40;93.40;;;;;;5128439;28;19996;-64
2023/06/29 07:01:26;;;;;;;;;;;19.60;93.90;;;;;;5112384;28;20340;-63
2023/06/29 07:03:52;;;;;;;;;;;19.70;93.60;;;;;;5094952;28;20359;-62
2023/06/29 07:06:18;;;;;;;;;;;19.90;93.30;;;;;;5113570;28;19984;-62
2023/06/29 07:08:43;;;;;;;;;;;19.90;92.00;;;;;;5114033;28;20388;-64
2023/06/29 07:11:09;;;;;;;;;;;19.90;92.40;;;;;;5112662;28;20075;-62
2023/06/29 07:13:35;;;;;;;;;;;20.00;92.70;;;;;;5113357;28;20390;-65
2023/06/29 07:16:00;;;;;;;;;;;20.00;89.50;;;;;;5113385;28;20034;-63
2023/06/29 07:18:26;;;;;;;;;;;20.10;91.10;;;;;;5113454;28;20028;-63
2023/06/29 07:20:51;;;;;;;;;;;20.30;92.20;;;;;;5113301;28;19992;-62
2023/06/29 07:23:17;;;;;;;;;;;20.50;90.60;;;;;;5113311;28;19991;-63
2023/06/29 07:25:43;;;;;;;;;;;20.60;88.40;;;;;;5097003;28;19988;-63
2023/06/29 07:28:08;;;;;;;;;;;20.60;87.40;;;;;;5117183;28;20354;-65
2023/06/29 07:30:34;;;;;;;;;;;20.70;87.30;;;;;;5117038;28;20076;-63
2023/06/29 07:32:59;;;;;;;;;;;20.70;86.60;;;;;;5116726;28;20058;-64
2023/06/29 07:35:25;;;;;;;;;;;20.70;83.40;;;;;;5116576;28;19985;-61
2023/06/29 07:37:50;;;;;;;;;;;20.90;85.10;;;;;;5116241;28;20020;-61
2023/06/29 07:40:16;;;;;;;;;;;21.00;85.00;;;;;;5116882;28;19985;-62
2023/06/29 07:45:44;;;;;;;;;;;21.30;80.70;;;;;;5116544;28;20532;-63
2023/06/29 07:48:10;;;;;;;;;;;21.60;82.40;;;;;;5116493;28;19985;-61
2023/06/29 07:50:35;;;;;;;;;;;22.80;78.70;;;;;;5115215;28;20151;-63
2023/06/29 07:53:01;;;;;;;;;;;25.20;69.30;;;;;;5115217;28;20483;-66
2023/06/29 07:55:27;;;;;;;;;;;27.80;61.60;;;;;;5116436;28;19985;-64
2023/06/29 07:57:53;;;;;;;;;;;29.80;56.90;;;;;;5116323;28;19988;-67
2023/06/29 08:00:18;;;;;;;;;;;31.30;54.30;;;;;;5110835;28;20047;-65
2023/06/29 08:02:45;;;;;;;;;;;32.40;53.20;;;;;;5101849;28;20714;-67
2023/06/29 08:05:11;;;;;;;;;;;33.30;47.70;;;;;;5113524;28;20488;-66
2023/06/29 08:07:36;;;;;;;;;;;33.70;46.80;;;;;;5109804;28;20443;-66
2023/06/29 08:10:02;;;;;;;;;;;33.90;44.70;;;;;;5112825;28;19989;-65
2023/06/29 08:12:27;;;;;;;;;;;34.40;44.90;;;;;;5115447;28;19992;-64
2023/06/29 08:14:53;;;;;;;;;;;35.00;41.30;;;;;;5115732;28;20434;-64
2023/06/29 08:17:18;;;;;;;;;;;34.80;41.10;;;;;;5116023;28;20354;-66
2023/06/29 08:19:44;;;;;;;;;;;34.70;42.90;;;;;;5114953;28;20079;-66
2023/06/29 08:22:09;;;;;;;;;;;35.10;41.00;;;;;;5115904;28;19984;-67
2023/06/29 08:24:35;;;;;;;;;;;35.30;41.10;;;;;;5115843;28;20029;-66
2023/06/29 08:27:01;;;;;;;;;;;35.40;41.50;;;;;;5111576;28;19995;-65
2023/06/29 08:29:26;;;;;;;;;;;35.10;41.60;;;;;;5104736;28;20000;-66
2023/06/29 08:31:52;;;;;;;;;;;35.40;41.80;;;;;;5115761;28;20396;-64
2023/06/29 08:34:17;;;;;;;;;;;35.60;40.40;;;;;;5096408;28;20019;-64
2023/06/29 08:36:43;;;;;;;;;;;35.80;40.60;;;;;;5115016;28;20071;-67
2023/06/29 08:39:08;;;;;;;;;;;35.90;40.60;;;;;;5115266;28;19988;-67
2023/06/29 08:41:34;;;;;;;;;;;35.30;40.30;;;;;;5115417;28;19984;-65
2023/06/29 08:44:01;;;;;;;;;;;35.00;39.70;;;;;;5115327;28;19988;-67
2023/06/29 08:46:27;;;;;;;;;;;35.00;38.30;;;;;;5115186;28;20025;-66
2023/06/29 08:48:54;;;;;;;;;;;34.90;39.00;;;;;;5115390;28;19985;-66
2023/06/29 08:51:21;;;;;;;;;;;34.80;41.70;;;;;;5115755;28;20028;-65
2023/06/29 08:53:47;;;;;;;;;;;34.90;40.50;;;;;;5115518;28;20020;-62
2023/06/29 08:56:13;;;;;;;;;;;34.60;40.70;;;;;;5113765;28;20019;-67
2023/06/29 08:58:39;;;;;;;;;;;34.40;41.60;;;;;;5113440;28;20032;-63
2023/06/29 09:01:05;;;;;;;;;;;34.20;41.60;;;;;;5112808;28;19985;-63
2023/06/29 09:03:32;;;;;;;;;;;34.10;40.40;;;;;;5112367;28;20072;-62
2023/06/29 09:05:57;;;;;;;;;;;34.50;41.30;;;;;;5114455;28;20011;-64
2023/06/29 09:08:26;;;;;;;;;;;33.40;40.00;;;;;;5093964;28;20443;-65
2023/06/29 09:10:52;;;;;;;;;;;33.70;41.20;;;;;;5108487;28;20300;-66
2023/06/29 09:13:18;;;;;;;;;;;34.20;41.20;;;;;;5119292;27;20023;-63
2023/06/29 09:15:45;;;;;;;;;;;34.50;38.80;;;;;;5114112;28;19985;-66
2023/06/29 09:18:11;;;;;;;;;;;34.70;38.70;;;;;;5093252;28;19988;-67
2023/06/29 09:20:37;;;;;;;;;;;34.80;40.20;;;;;;5113126;28;20052;-65
2023/06/29 09:23:06;;;;;;;;;;;34.90;39.10;;;;;;5112810;28;19991;-63
2023/06/29 09:25:37;;;;;;;;;;;34.90;38.80;;;;;;5113179;28;19985;-64
2023/06/29 09:28:04;;;;;;;;;;;35.20;38.60;;;;;;5111251;28;19992;-63
2023/06/29 09:30:33;;;;;;;;;;;34.80;36.20;;;;;;5111953;28;19992;-64
2023/06/29 09:33:04;;;;;;;;;;;34.70;38.40;;;;;;5112430;28;20421;-63
2023/06/29 09:35:30;;;;;;;;;;;34.90;38.70;;;;;;5113654;28;20032;-64
2023/06/29 09:37:55;;;;;;;;;;;34.90;37.60;;;;;;5113263;28;20032;-63
2023/06/29 09:40:21;;;;;;;;;;;34.90;38.50;;;;;;5113950;28;19991;-63
2023/06/29 09:42:46;;;;;;;;;;;33.80;36.40;;;;;;5114268;28;19991;-64
2023/06/29 09:45:14;;;;;;;;;;;33.50;38.40;;;;;;5114293;28;20346;-65
2023/06/29 09:47:47;;;;;;;;;;;34.00;38.80;;;;;;5114363;28;20038;-63
2023/06/29 09:50:16;;;;;;;;;;;34.30;37.10;;;;;;5114382;28;20024;-63
2023/06/29 09:52:46;;;;;;;;;;;34.30;36.70;;;;;;5114002;28;19985;-64
2023/06/29 09:55:15;;;;;;;;;;;34.10;38.80;;;;;;5114170;28;20530;-65
2023/06/29 09:57:45;;;;;;;;;;;33.60;40.70;;;;;;5095808;28;19992;-65
2023/06/29 10:00:12;;;;;;;;;;;33.00;39.80;;;;;;5110465;28;20327;-63
2023/06/29 10:02:39;;;;;;;;;;;32.60;38.40;;;;;;5091233;28;20415;-63
2023/06/29 10:05:05;;;;;;;;;;;32.90;39.40;;;;;;5111496;28;19992;-64
2023/06/29 10:07:31;;;;;;;;;;;32.90;41.30;;;;;;5110715;28;20408;-64
2023/06/29 10:09:58;;;;;;;;;;;32.80;39.50;;;;;;5112911;28;20011;-63
2023/06/29 10:12:26;;;;;;;;;;;33.40;40.20;;;;;;5112616;28;20037;-64
2023/06/29 10:14:54;;;;;;;;;;;33.50;37.80;;;;;;5112694;28;20626;-63
2023/06/29 10:17:24;;;;;;;;;;;33.90;36.70;;;;;;5112308;28;19992;-63
2023/06/29 10:19:50;;;;;;;;;;;34.00;39.50;;;;;;5112179;28;20460;-63
2023/06/29 10:22:17;;;;;;;;;;;34.10;36.90;;;;;;5112404;28;20460;-64
2023/06/29 10:24:56;;;;;;;;;;;33.60;38.70;;;;;;5112652;28;19985;-63
2023/06/29 10:27:23;;;;;;;;;;;33.80;39.10;;;;;;5112489;28;19991;-63
2023/06/29 10:29:50;;;;;;;;;;;33.90;37.20;;;;;;5113205;28;20075;-63
2023/06/29 10:32:42;;;;;;;;;;;32.80;37.10;;;;;;5113071;28;19991;-64
2023/06/29 10:35:09;;;;;;;;;;;33.20;34.90;;;;;;5109497;28;20000;-64
2023/06/29 10:37:35;;;;;;;;;;;33.10;35.70;;;;;;5113903;28;20423;-63
2023/06/29 10:40:05;;;;;;;;;;;33.00;38.80;;;;;;5114037;28;19985;-64
2023/06/29 10:42:33;;;;;;;;;;;32.60;36.90;;;;;;5114098;28;19992;-63
2023/06/29 10:44:58;;;;;;;;;;;31.50;37.80;;;;;;5114086;28;20409;-64
2023/06/29 10:47:26;;;;;;;;;;;31.50;39.20;;;;;;5113786;28;20021;-63
2023/06/29 10:49:55;;;;;;;;;;;32.00;42.10;;;;;;5113762;28;19988;-63
2023/06/29 10:52:24;;;;;;;;;;;32.00;41.00;;;;;;5113803;28;20026;-63
2023/06/29 10:55:09;;;;;;;;;;;31.50;39.20;;;;;;5113995;28;20447;-63
2023/06/29 10:57:35;;;;;;;;;;;31.10;41.10;;;;;;5113489;28;20008;-63
2023/06/29 11:00:01;;;;;;;;;;;30.70;42.90;;;;;;5114759;28;19989;-64
2023/06/29 11:02:27;;;;;;;;;;;30.20;40.40;;;;;;5118045;28;20099;-63
2023/06/29 11:04:52;;;;;;;;;;;29.90;41.20;;;;;;5117538;28;20046;-64
2023/06/29 11:07:19;;;;;;;;;;;29.70;45.20;;;;;;5117980;28;19993;-64
2023/06/29 11:09:44;;;;;;;;;;;29.70;44.40;;;;;;5118092;28;20453;-63
2023/06/29 11:12:10;;;;;;;;;;;30.20;45.80;;;;;;5117782;28;20028;-63
2023/06/29 11:14:38;;;;;;;;;;;30.00;43.60;;;;;;5117644;28;20009;-64
2023/06/29 11:17:07;;;;;;;;;;;29.90;43.90;;;;;;5117592;28;19984;-63
2023/06/29 11:19:33;;;;;;;;;;;30.40;44.80;;;;;;5117531;28;19996;-64
2023/06/29 11:21:59;;;;;;;;;;;30.10;42.90;;;;;;5117741;28;20354;-62
2023/06/29 11:24:25;;;;;;;;;;;30.40;44.30;;;;;;5117692;28;19989;-63
2023/06/29 11:26:52;;;;;;;;;;;30.90;40.70;;;;;;5117508;28;20055;-64
2023/06/29 11:29:18;;;;;;;;;;;31.30;44.20;;;;;;5117471;28;19991;-63
2023/06/29 11:31:44;;;;;;;;;;;31.70;43.10;;;;;;5117339;28;20036;-63
2023/06/29 11:34:12;;;;;;;;;;;31.90;43.50;;;;;;5117164;28;20102;-64
2023/06/29 11:36:38;;;;;;;;;;;32.10;39.80;;;;;;5117442;28;20053;-63
2023/06/29 11:39:04;;;;;;;;;;;32.00;41.20;;;;;;5117146;28;20039;-64
2023/06/29 11:41:30;;;;;;;;;;;32.10;41.30;;;;;;5117209;28;20024;-64
2023/06/29 11:43:57;;;;;;;;;;;32.00;39.90;;;;;;5116959;28;19985;-63
2023/06/29 11:46:22;;;;;;;;;;;31.70;41.20;;;;;;5116904;28;20505;-63
2023/06/29 11:48:54;;;;;;;;;;;31.40;41.00;;;;;;5116655;28;19989;-63
2023/06/29 11:51:19;;;;;;;;;;;31.00;38.80;;;;;;5117114;28;19989;-64
2023/06/29 11:53:45;;;;;;;;;;;30.60;43.60;;;;;;5116726;28;20017;-64
2023/06/29 11:56:22;;;;;;;;;;;30.50;42.60;;;;;;5116776;28;20000;-64
2023/06/29 11:58:48;;;;;;;;;;;30.20;42.70;;;;;;5116778;28;19984;-64
2023/06/29 12:01:14;;;;;;;;;;;30.00;44.20;;;;;;5116687;28;20362;-64
2023/06/29 12:03:40;;;;;;;;;;;29.90;45.30;;;;;;5116391;28;19991;-63
2023/06/29 12:06:05;;;;;;;;;;;29.90;45.70;;;;;;5116596;28;19989;-63
2023/06/29 12:08:40;;;;;;;;;;;29.80;43.50;;;;;;5116734;28;20011;-63
2023/06/29 12:11:06;;;;;;;;;;;29.60;45.20;;;;;;5115552;28;20464;-63
2023/06/29 12:13:31;;;;;;;;;;;29.40;42.30;;;;;;5116081;28;20008;-63
2023/06/29 12:16:03;;;;;;;;;;;29.40;44.10;;;;;;5116496;28;20075;-63
2023/06/29 12:18:28;;;;;;;;;;;29.30;44.60;;;;;;5116064;28;20034;-63
2023/06/29 12:20:54;;;;;;;;;;;29.40;46.10;;;;;;5116482;28;19988;-64
2023/06/29 12:23:20;;;;;;;;;;;29.30;46.20;;;;;;5116385;28;19985;-62
2023/06/29 12:25:47;;;;;;;;;;;29.10;46.40;;;;;;5116189;28;20006;-64
2023/06/29 12:28:13;;;;;;;;;;;29.00;45.80;;;;;;5116340;28;20357;-63
2023/06/29 12:30:39;;;;;;;;;;;29.00;45.30;;;;;;5116136;28;20087;-64
2023/06/29 12:33:06;;;;;;;;;;;28.90;44.00;;;;;;5115939;28;20343;-64
2023/06/29 12:35:31;;;;;;;;;;;29.00;45.30;;;;;;5116235;28;20403;-64
2023/06/29 12:37:57;;;;;;;;;;;29.60;45.20;;;;;;5116091;28;20012;-64
2023/06/29 12:40:23;;;;;;;;;;;30.10;43.70;;;;;;5116053;28;20035;-62
2023/06/29 12:42:49;;;;;;;;;;;30.70;44.60;;;;;;5116174;28;20046;-63
2023/06/29 12:45:14;;;;;;;;;;;31.30;41.40;;;;;;5116007;28;20117;-63
2023/06/29 12:47:41;;;;;;;;;;;31.70;39.40;;;;;;5115593;28;20354;-63
2023/06/29 12:50:07;;;;;;;;;;;31.70;39.50;;;;;;5115698;28;20008;-63
2023/06/29 12:52:32;;;;;;;;;;;31.20;40.40;;;;;;5115618;28;20458;-64
2023/06/29 12:54:58;;;;;;;;;;;30.80;40.50;;;;;;5115830;28;19993;-63
2023/06/29 12:57:30;;;;;;;;;;;30.80;40.10;;;;;;5115731;28;20009;-62
2023/06/29 12:59:56;;;;;;;;;;;30.70;43.00;;;;;;5115375;28;20055;-63
2023/06/29 13:02:22;;;;;;;;;;;30.60;42.50;;;;;;5115565;28;20463;-63
2023/06/29 13:04:48;;;;;;;;;;;30.50;43.10;;;;;;5115422;28;19991;-62
2023/06/29 13:07:17;;;;;;;;;;;30.60;43.30;;;;;;5115543;28;20029;-63
2023/06/29 13:09:47;;;;;;;;;;;30.80;44.00;;;;;;5115364;28;20359;-63
2023/06/29 13:12:14;;;;;;;;;;;31.10;46.20;;;;;;5115250;28;20485;-62
2023/06/29 13:14:40;;;;;;;;;;;31.20;43.10;;;;;;5114943;28;20013;-62
2023/06/29 13:17:06;;;;;;;;;;;31.40;42.80;;;;;;5115170;28;19992;-62
2023/06/29 13:19:32;;;;;;;;;;;31.20;42.90;;;;;;5115110;28;19985;-63
2023/06/29 13:21:57;;;;;;;;;;;31.30;39.70;;;;;;5115135;28;19988;-62
2023/06/29 13:24:23;;;;;;;;;;;31.60;41.80;;;;;;5114662;28;19991;-64
2023/06/29 13:26:49;;;;;;;;;;;31.90;43.60;;;;;;5115038;28;19989;-62
2023/06/29 13:29:15;;;;;;;;;;;32.20;40.40;;;;;;5115110;28;20000;-62
2023/06/29 13:31:41;;;;;;;;;;;32.50;41.30;;;;;;5114900;28;19988;-63
2023/06/29 13:34:06;;;;;;;;;;;32.60;41.30;;;;;;5115130;28;20016;-62
2023/06/29 13:36:32;;;;;;;;;;;32.80;39.70;;;;;;5114970;28;19995;-63
2023/06/29 13:38:58;;;;;;;;;;;33.00;38.70;;;;;;5114957;28;20340;-62
2023/06/29 13:41:36;;;;;;;;;;;33.30;40.90;;;;;;5114828;28;19992;-63
2023/06/29 13:44:07;;;;;;;;;;;33.50;39.50;;;;;;5114557;28;20080;-63
2023/06/29 13:46:33;;;;;;;;;;;33.40;40.90;;;;;;5114637;28;20394;-63
2023/06/29 13:48:58;;;;;;;;;;;32.90;38.00;;;;;;5114496;28;19995;-62
2023/06/29 13:51:24;;;;;;;;;;;32.40;38.60;;;;;;5114764;28;19991;-63
2023/06/29 13:53:50;;;;;;;;;;;32.30;40.30;;;;;;5114752;28;20016;-63
2023/06/29 13:56:16;;;;;;;;;;;32.10;39.60;;;;;;5114485;28;20044;-63
2023/06/29 13:58:42;;;;;;;;;;;31.90;41.00;;;;;;5114425;28;19989;-62
2023/06/29 14:01:07;;;;;;;;;;;32.10;40.80;;;;;;5114490;28;20354;-63
2023/06/29 14:03:33;;;;;;;;;;;32.30;38.90;;;;;;5114638;28;20020;-62
2023/06/29 14:05:58;;;;;;;;;;;32.40;40.10;;;;;;5114604;28;19997;-63
2023/06/29 14:08:24;;;;;;;;;;;32.60;40.70;;;;;;5114351;28;20035;-64
2023/06/29 14:10:50;;;;;;;;;;;32.70;42.40;;;;;;5114619;28;19988;-62
2023/06/29 14:13:15;;;;;;;;;;;32.90;38.00;;;;;;5113934;28;20366;-63
2023/06/29 14:15:41;;;;;;;;;;;33.00;39.50;;;;;;5114452;28;20008;-63